createdAt,value
2019-05-02T00:00:19.869Z,60.13
2019-05-02T00:01:30.890Z,60.07
2019-05-02T00:02:34.732Z,59.88
2019-05-02T00:03:41.118Z,59.92
2019-05-02T00:04:44.200Z,59.92
2019-05-02T00:05:47.836Z,59.85
2019-05-02T00:07:07.969Z,59.85
2019-05-02T00:08:11.422Z,59.66
2019-05-02T00:09:15.599Z,59.54
2019-05-02T00:10:24.891Z,59.40
2019-05-02T00:11:26.559Z,59.41
2019-05-02T00:12:30.376Z,59.35
2019-05-02T00:13:34.250Z,59.03
2019-05-02T00:14:38.600Z,58.92
2019-05-02T00:15:42.207Z,58.79
2019-05-02T00:16:49.292Z,58.52
2019-05-02T00:17:51.122Z,58.51
2019-05-02T00:18:54.621Z,58.44
2019-05-02T00:19:58.132Z,58.54
2019-05-02T00:21:03.212Z,58.54
2019-05-02T00:22:12.301Z,58.76
2019-05-02T00:23:14.685Z,58.69
2019-05-02T00:24:18.194Z,58.61
2019-05-02T00:25:21.629Z,58.72
2019-05-02T00:26:25.891Z,58.98
2019-05-02T00:27:32.736Z,58.99
2019-05-02T00:28:34.743Z,58.84
2019-05-02T00:29:38.319Z,58.68
2019-05-02T00:30:41.893Z,58.61
2019-05-02T00:31:46.840Z,58.90
2019-05-02T00:32:53.183Z,58.89
2019-05-02T00:33:55.835Z,58.60
2019-05-02T00:34:59.341Z,58.76
2019-05-02T00:36:02.772Z,58.87
2019-05-02T00:37:06.214Z,58.78
2019-05-02T00:38:09.741Z,58.53
2019-05-02T00:39:15.178Z,58.49
2019-05-02T00:40:20.159Z,58.65
2019-05-02T00:41:23.713Z,58.59
2019-05-02T00:42:27.299Z,58.78
2019-05-02T00:43:34.328Z,58.87
2019-05-02T00:44:35.988Z,59.11
2019-05-02T00:45:39.562Z,59.29
2019-05-02T00:46:43.133Z,59.42
2019-05-02T00:47:49.828Z,59.57
2019-05-02T00:48:59.922Z,59.54
2019-05-02T00:50:00.151Z,59.43
2019-05-02T00:51:03.783Z,59.47
2019-05-02T00:52:07.366Z,59.46
2019-05-02T00:53:12.006Z,59.31
2019-05-02T00:54:19.292Z,59.28
2019-05-02T00:55:21.416Z,59.40
2019-05-02T00:56:24.931Z,59.58
2019-05-02T00:57:28.431Z,59.59
2019-05-02T00:58:33.088Z,59.67
2019-05-02T00:59:37.708Z,59.80
2019-05-02T01:00:59.488Z,59.78
2019-05-02T01:02:19.814Z,59.67
2019-05-02T01:03:23.350Z,59.83
2019-05-02T01:04:34.312Z,59.69
2019-05-02T01:05:38.498Z,59.49
2019-05-02T01:06:44.728Z,59.32
2019-05-02T01:07:48.351Z,59.24
2019-05-02T01:08:51.901Z,59.13
2019-05-02T01:09:55.321Z,59.07
2019-05-02T01:10:58.764Z,59.14
2019-05-02T01:12:03.097Z,59.12
2019-05-02T01:13:07.433Z,59.26
2019-05-02T01:14:10.890Z,59.31
2019-05-02T01:15:14.773Z,59.57
2019-05-02T01:16:19.139Z,59.60
2019-05-02T01:17:26.040Z,59.64
2019-05-02T01:18:28.579Z,59.65
2019-05-02T01:19:32.099Z,59.64
2019-05-02T01:20:35.602Z,59.59
2019-05-02T01:21:40.133Z,59.59
2019-05-02T01:22:47.099Z,59.55
2019-05-02T01:23:48.753Z,59.66
2019-05-02T01:24:52.335Z,59.74
2019-05-02T01:25:55.752Z,59.63
2019-05-02T01:27:12.452Z,59.54
2019-05-02T01:28:29.418Z,59.57
2019-05-02T01:29:34.588Z,59.66
2019-05-02T01:30:55.747Z,59.77
2019-05-02T01:32:00.815Z,59.89
2019-05-02T01:33:11.453Z,60.01
2019-05-02T01:34:31.267Z,60.16
2019-05-02T01:35:51.368Z,60.02
2019-05-02T01:37:11.911Z,59.83
2019-05-02T01:38:33.790Z,59.80
2019-05-02T01:39:37.962Z,59.78
2019-05-02T01:40:42.531Z,59.68
2019-05-02T01:41:45.984Z,59.54
2019-05-02T01:42:51.045Z,59.50
2019-05-02T01:43:55.010Z,59.63
2019-05-02T01:44:59.696Z,59.68
2019-05-02T01:46:03.270Z,59.77
2019-05-02T01:47:06.704Z,59.71
2019-05-02T01:48:11.004Z,59.69
2019-05-02T01:49:16.798Z,60.07
2019-05-02T01:50:19.643Z,60.06
2019-05-02T01:51:23.223Z,60.09
2019-05-02T01:52:26.650Z,60.15
2019-05-02T01:53:34.298Z,60.14
2019-05-02T01:54:35.311Z,60.00
2019-05-02T01:55:38.760Z,59.55
2019-05-02T01:56:42.273Z,59.91
2019-05-02T01:57:46.039Z,59.81
2019-05-02T01:58:53.003Z,59.80
2019-05-02T01:59:54.843Z,59.70
2019-05-02T02:00:58.414Z,59.61
2019-05-02T02:02:01.854Z,59.57
2019-05-02T02:03:09.169Z,59.27
2019-05-02T02:04:10.754Z,58.66
2019-05-02T02:05:14.340Z,58.52
2019-05-02T02:06:17.839Z,58.60
2019-05-02T02:07:21.341Z,58.76
2019-05-02T02:08:27.496Z,58.79
2019-05-02T02:09:30.077Z,58.87
2019-05-02T02:10:33.615Z,58.68
2019-05-02T02:11:37.112Z,58.61
2019-05-02T02:12:42.972Z,58.35
2019-05-02T02:13:45.700Z,58.33
2019-05-02T02:14:53.546Z,58.30
2019-05-02T02:15:54.443Z,58.19
2019-05-02T02:16:57.982Z,58.08
2019-05-02T02:18:01.491Z,58.04
2019-05-02T02:19:06.827Z,58.14
2019-05-02T02:20:20.935Z,58.16
2019-05-02T02:21:31.836Z,58.26
2019-05-02T02:22:39.156Z,58.24
2019-05-02T02:23:58.304Z,58.30
2019-05-02T02:25:09.318Z,58.51
2019-05-02T02:26:14.475Z,58.46
2019-05-02T02:27:19.875Z,58.50
2019-05-02T02:28:23.057Z,58.60
2019-05-02T02:29:26.488Z,58.45
2019-05-02T02:30:29.941Z,58.51
2019-05-02T02:31:39.598Z,58.44
2019-05-02T02:32:38.590Z,58.21
2019-05-02T02:33:47.578Z,58.14
2019-05-02T02:34:47.268Z,58.10
2019-05-02T02:35:52.219Z,57.99
2019-05-02T02:36:55.680Z,57.83
2019-05-02T02:37:59.259Z,57.65
2019-05-02T02:39:07.070Z,57.80
2019-05-02T02:40:10.027Z,57.65
2019-05-02T02:41:15.080Z,58.00
2019-05-02T02:42:25.180Z,57.82
2019-05-02T02:43:34.189Z,58.01
2019-05-02T02:44:39.749Z,57.92
2019-05-02T02:46:01.655Z,57.69
2019-05-02T02:47:11.482Z,57.39
2019-05-02T02:48:10.807Z,57.32
2019-05-02T02:49:21.724Z,57.20
2019-05-02T02:50:19.519Z,57.25
2019-05-02T02:51:25.765Z,57.38
2019-05-02T02:52:28.141Z,57.47
2019-05-02T02:53:31.632Z,57.52
2019-05-02T02:54:36.598Z,57.50
2019-05-02T02:55:40.277Z,57.66
2019-05-02T02:56:43.735Z,57.45
2019-05-02T02:57:47.172Z,57.46
2019-05-02T02:58:50.751Z,57.59
2019-05-02T03:00:06.489Z,57.64
2019-05-02T03:00:59.759Z,57.78
2019-05-02T03:02:10.411Z,57.89
2019-05-02T03:03:08.607Z,57.96
2019-05-02T03:04:12.478Z,57.93
2019-05-02T03:05:18.600Z,57.84
2019-05-02T03:06:21.291Z,57.80
2019-05-02T03:07:26.408Z,57.86
2019-05-02T03:08:29.977Z,58.02
2019-05-02T03:09:33.481Z,57.82
2019-05-02T03:10:39.851Z,57.76
2019-05-02T03:12:02.061Z,57.71
2019-05-02T03:13:24.641Z,57.80
2019-05-02T03:14:29.775Z,58.06
2019-05-02T03:15:34.998Z,58.19
2019-05-02T03:16:46.178Z,58.29
2019-05-02T03:17:45.121Z,58.49
2019-05-02T03:18:48.654Z,58.71
2019-05-02T03:19:54.351Z,58.62
2019-05-02T03:20:57.494Z,58.64
2019-05-02T03:22:03.768Z,58.79
2019-05-02T03:23:06.177Z,58.79
2019-05-02T03:24:10.048Z,58.82
2019-05-02T03:25:18.316Z,58.91
2019-05-02T03:26:18.832Z,59.05
2019-05-02T03:27:22.275Z,59.10
2019-05-02T03:28:25.801Z,59.26
2019-05-02T03:29:41.338Z,59.20
2019-05-02T03:30:37.168Z,59.18
2019-05-02T03:31:39.777Z,59.13
2019-05-02T03:33:03.571Z,59.15
2019-05-02T03:33:56.733Z,59.05
2019-05-02T03:34:54.389Z,58.96
2019-05-02T03:35:58.053Z,59.08
2019-05-02T03:37:10.699Z,59.24
2019-05-02T03:38:06.726Z,59.23
2019-05-02T03:39:15.014Z,59.20
2019-05-02T03:40:15.513Z,59.15
2019-05-02T03:41:20.540Z,59.05
2019-05-02T03:42:24.307Z,59.00
2019-05-02T03:43:28.046Z,59.17
2019-05-02T03:44:31.544Z,59.25
2019-05-02T03:45:39.971Z,59.33
2019-05-02T03:46:40.856Z,59.22
2019-05-02T03:47:46.594Z,59.27
2019-05-02T03:48:49.672Z,59.27
2019-05-02T03:49:53.253Z,59.04
2019-05-02T03:50:56.926Z,58.89
2019-05-02T03:52:02.795Z,58.83
2019-05-02T03:53:05.725Z,59.00
2019-05-02T03:54:10.383Z,59.04
2019-05-02T03:55:14.040Z,59.08
2019-05-02T03:56:17.546Z,59.07
2019-05-02T03:57:32.424Z,58.99
2019-05-02T03:58:26.341Z,58.87
2019-05-02T03:59:38.233Z,58.88
2019-05-02T04:00:35.150Z,58.86
2019-05-02T04:01:41.314Z,58.87
2019-05-02T04:02:43.883Z,58.79
2019-05-02T04:03:47.405Z,58.95
2019-05-02T04:04:54.457Z,58.86
2019-05-02T04:05:56.152Z,58.73
2019-05-02T04:07:01.203Z,58.60
2019-05-02T04:08:05.798Z,58.63
2019-05-02T04:09:10.826Z,58.82
2019-05-02T04:10:20.178Z,58.92
2019-05-02T04:11:24.718Z,59.06
2019-05-02T04:12:32.536Z,59.27
2019-05-02T04:13:36.312Z,59.49
2019-05-02T04:14:40.266Z,59.68
2019-05-02T04:15:44.616Z,59.66
2019-05-02T04:16:54.625Z,59.67
2019-05-02T04:17:54.396Z,59.86
2019-05-02T04:19:00.492Z,59.86
2019-05-02T04:20:09.300Z,59.78
2019-05-02T04:21:10.896Z,59.83
2019-05-02T04:22:15.358Z,59.88
2019-05-02T04:23:21.331Z,59.78
2019-05-02T04:24:24.498Z,59.73
2019-05-02T04:26:33.780Z,59.67
2019-05-02T04:27:37.274Z,59.78
2019-05-02T04:28:45.477Z,59.88
2019-05-02T04:29:45.874Z,60.08
2019-05-02T04:30:51.331Z,60.04
2019-05-02T04:31:54.551Z,59.75
2019-05-02T04:32:58.002Z,59.77
2019-05-02T04:34:01.415Z,59.59
2019-05-02T04:35:05.812Z,59.61
2019-05-02T04:36:15.505Z,59.64
2019-05-02T04:37:14.567Z,59.70
2019-05-02T04:38:21.380Z,59.47
2019-05-02T04:39:23.180Z,59.04
2019-05-02T04:40:28.355Z,58.85
2019-05-02T04:41:34.210Z,58.67
2019-05-02T04:42:39.298Z,58.81
2019-05-02T04:43:54.554Z,58.92
2019-05-02T04:45:08.781Z,58.86
2019-05-02T04:45:56.416Z,59.11
2019-05-02T04:47:02.641Z,58.95
2019-05-02T04:48:04.098Z,58.97
2019-05-02T04:49:09.161Z,58.84
2019-05-02T04:50:18.245Z,58.58
2019-05-02T04:51:20.566Z,58.57
2019-05-02T04:52:23.312Z,58.47
2019-05-02T04:53:36.888Z,58.64
2019-05-02T04:54:32.574Z,59.02
2019-05-02T04:55:38.085Z,58.97
2019-05-02T04:56:49.533Z,58.57
2019-05-02T04:57:50.615Z,58.60
2019-05-02T04:58:51.886Z,58.55
2019-05-02T05:00:02.498Z,58.54
2019-05-02T05:01:01.889Z,58.29
2019-05-02T05:02:05.513Z,58.07
2019-05-02T05:03:15.491Z,57.99
2019-05-02T05:04:14.245Z,57.82
2019-05-02T05:05:25.671Z,57.96
2019-05-02T05:06:23.011Z,58.06
2019-05-02T05:07:31.128Z,58.27
2019-05-02T05:08:32.091Z,58.98
2019-05-02T05:09:35.591Z,58.95
2019-05-02T05:10:41.369Z,59.00
2019-05-02T05:11:44.193Z,59.02
2019-05-02T05:12:48.063Z,58.85
2019-05-02T05:13:52.344Z,58.88
2019-05-02T05:14:57.839Z,59.47
2019-05-02T05:16:02.928Z,58.97
2019-05-02T05:17:08.013Z,58.87
2019-05-02T05:18:14.490Z,58.92
2019-05-02T05:19:17.823Z,58.85
2019-05-02T05:20:21.332Z,58.80
2019-05-02T05:21:26.226Z,58.83
2019-05-02T05:22:30.151Z,58.52
2019-05-02T05:23:40.753Z,58.58
2019-05-02T05:24:47.714Z,58.34
2019-05-02T05:26:00.655Z,58.30
2019-05-02T05:27:00.669Z,58.09
2019-05-02T05:28:06.012Z,58.07
2019-05-02T05:29:09.337Z,57.90
2019-05-02T05:30:15.616Z,57.85
2019-05-02T05:31:24.120Z,57.74
2019-05-02T05:32:23.316Z,57.81
2019-05-02T05:33:28.404Z,57.83
2019-05-02T05:34:32.793Z,58.28
2019-05-02T05:35:38.400Z,58.20
2019-05-02T05:36:41.510Z,58.09
2019-05-02T05:37:51.179Z,57.62
2019-05-02T05:38:50.104Z,57.43
2019-05-02T05:39:53.549Z,57.23
2019-05-02T05:40:58.041Z,57.31
2019-05-02T05:42:01.857Z,57.34
2019-05-02T05:43:13.631Z,57.31
2019-05-02T05:44:10.577Z,57.07
2019-05-02T05:45:14.388Z,57.00
2019-05-02T05:46:18.049Z,56.89
2019-05-02T05:47:21.539Z,56.88
2019-05-02T05:48:27.236Z,56.67
2019-05-02T05:49:30.167Z,56.85
2019-05-02T05:50:39.857Z,56.87
2019-05-02T05:51:38.806Z,56.23
2019-05-02T05:52:42.654Z,56.23
2019-05-02T05:53:47.839Z,56.23
2019-05-02T05:54:51.385Z,56.12
2019-05-02T05:55:59.018Z,55.97
2019-05-02T05:57:00.061Z,56.00
2019-05-02T05:58:12.421Z,55.96
2019-05-02T05:59:08.815Z,55.83
2019-05-02T06:00:17.411Z,55.43
2019-05-02T06:01:20.497Z,54.81
2019-05-02T06:02:23.024Z,54.70
2019-05-02T06:03:27.803Z,54.59
2019-05-02T06:04:33.287Z,54.79
2019-05-02T06:05:38.444Z,54.70
2019-05-02T06:06:41.725Z,54.55
2019-05-02T06:07:47.303Z,53.89
2019-05-02T06:08:54.250Z,53.42
2019-05-02T06:09:55.481Z,53.54
2019-05-02T06:10:58.955Z,53.15
2019-05-02T06:12:02.425Z,53.27
2019-05-02T06:13:10.971Z,53.35
2019-05-02T06:14:11.102Z,53.34
2019-05-02T06:15:14.593Z,53.20
2019-05-02T06:16:18.227Z,53.05
2019-05-02T06:17:23.079Z,52.99
2019-05-02T06:18:28.461Z,52.77
2019-05-02T06:19:31.939Z,52.68
2019-05-02T06:20:35.611Z,52.71
2019-05-02T06:21:39.959Z,52.61
2019-05-02T06:22:44.449Z,52.42
2019-05-02T06:23:47.888Z,52.34
2019-05-02T06:24:52.172Z,52.31
2019-05-02T06:25:55.647Z,51.97
2019-05-02T06:26:59.269Z,52.29
2019-05-02T06:28:05.180Z,52.25
2019-05-02T06:29:07.869Z,51.83
2019-05-02T06:30:12.146Z,51.74
2019-05-02T06:31:17.197Z,51.64
2019-05-02T06:32:20.763Z,51.59
2019-05-02T06:33:25.889Z,51.64
2019-05-02T06:34:29.525Z,51.47
2019-05-02T06:35:33.029Z,51.73
2019-05-02T06:36:38.020Z,51.72
2019-05-02T06:37:45.418Z,51.52
2019-05-02T06:38:46.708Z,51.54
2019-05-02T06:39:50.141Z,51.63
2019-05-02T06:40:53.564Z,51.55
2019-05-02T06:41:58.607Z,51.40
2019-05-02T06:43:04.170Z,51.41
2019-05-02T06:44:10.149Z,51.30
2019-05-02T06:45:12.775Z,51.31
2019-05-02T06:46:21.272Z,51.33
2019-05-02T06:47:21.470Z,51.07
2019-05-02T06:48:24.979Z,51.24
2019-05-02T06:49:28.421Z,51.30
2019-05-02T06:50:33.253Z,51.11
2019-05-02T06:51:37.137Z,51.24
2019-05-02T06:52:40.723Z,51.27
2019-05-02T06:53:47.075Z,51.33
2019-05-02T06:54:49.350Z,51.23
2019-05-02T06:55:52.780Z,51.25
2019-05-02T06:56:56.212Z,51.09
2019-05-02T06:58:02.970Z,49.82
2019-05-02T06:59:05.000Z,49.15
2019-05-02T07:00:08.959Z,49.32
2019-05-02T07:01:16.210Z,49.00
2019-05-02T07:02:17.633Z,48.64
2019-05-02T07:03:21.157Z,48.88
2019-05-02T07:04:25.013Z,48.44
2019-05-02T07:05:28.639Z,48.62
2019-05-02T07:06:42.199Z,48.74
2019-05-02T07:07:37.870Z,48.53
2019-05-02T07:08:41.407Z,48.31
2019-05-02T07:09:44.848Z,48.04
2019-05-02T07:10:48.339Z,48.09
2019-05-02T07:11:57.449Z,47.99
2019-05-02T07:13:10.126Z,47.64
2019-05-02T07:14:12.945Z,47.56
2019-05-02T07:15:10.561Z,47.72
2019-05-02T07:16:36.906Z,47.79
2019-05-02T07:17:32.159Z,47.74
2019-05-02T07:18:35.103Z,47.61
2019-05-02T07:19:40.268Z,47.41
2019-05-02T07:20:43.777Z,47.74
2019-05-02T07:21:47.274Z,47.92
2019-05-02T07:22:50.713Z,48.12
2019-05-02T07:23:55.243Z,48.67
2019-05-02T07:25:01.792Z,48.47
2019-05-02T07:26:04.336Z,47.86
2019-05-02T07:27:07.849Z,47.93
2019-05-02T07:28:11.470Z,47.61
2019-05-02T07:29:17.118Z,47.85
2019-05-02T07:30:20.487Z,47.65
2019-05-02T07:31:23.994Z,47.39
2019-05-02T07:32:27.500Z,47.51
2019-05-02T07:33:32.444Z,47.50
2019-05-02T07:34:36.357Z,47.04
2019-05-02T07:35:39.793Z,47.03
2019-05-02T07:36:43.793Z,46.95
2019-05-02T07:37:48.911Z,47.00
2019-05-02T07:38:52.530Z,47.03
2019-05-02T07:39:56.083Z,46.70
2019-05-02T07:40:59.632Z,46.52
2019-05-02T07:42:05.774Z,46.89
2019-05-02T07:43:08.481Z,46.61
2019-05-02T07:44:11.916Z,46.77
2019-05-02T07:45:15.619Z,46.66
2019-05-02T07:46:20.998Z,46.57
2019-05-02T07:47:24.211Z,46.42
2019-05-02T07:48:27.666Z,46.52
2019-05-02T07:49:32.122Z,45.60
2019-05-02T07:50:36.408Z,45.89
2019-05-02T07:51:39.912Z,45.87
2019-05-02T07:52:43.418Z,44.68
2019-05-02T07:53:48.472Z,44.72
2019-05-02T07:54:56.224Z,44.36
2019-05-02T07:55:57.335Z,44.85
2019-05-02T07:57:02.379Z,44.95
2019-05-02T07:58:06.831Z,45.02
2019-05-02T07:59:10.592Z,44.58
2019-05-02T08:00:16.667Z,44.89
2019-05-02T08:01:20.248Z,44.85
2019-05-02T08:02:25.015Z,44.91
2019-05-02T08:03:29.370Z,44.32
2019-05-02T08:04:34.145Z,44.60
2019-05-02T08:05:37.811Z,44.36
2019-05-02T08:06:44.674Z,43.78
2019-05-02T08:07:46.621Z,43.51
2019-05-02T08:08:50.127Z,43.45
2019-05-02T08:09:53.701Z,43.71
2019-05-02T08:11:01.712Z,43.21
2019-05-02T08:12:02.448Z,42.91
2019-05-02T08:13:06.124Z,43.04
2019-05-02T08:14:09.626Z,42.52
2019-05-02T08:15:15.234Z,42.55
2019-05-02T08:16:22.363Z,42.69
2019-05-02T08:17:23.765Z,42.61
2019-05-02T08:18:30.448Z,42.44
2019-05-02T08:19:32.536Z,42.17
2019-05-02T08:20:36.001Z,41.52
2019-05-02T08:21:39.456Z,41.81
2019-05-02T08:22:44.069Z,41.54
2019-05-02T08:23:48.055Z,41.51
2019-05-02T08:24:51.560Z,41.60
2019-05-02T08:25:55.092Z,41.02
2019-05-02T08:27:05.884Z,41.25
2019-05-02T08:28:15.761Z,41.45
2019-05-02T08:29:16.179Z,41.59
2019-05-02T08:30:21.801Z,41.80
2019-05-02T08:31:25.246Z,41.93
2019-05-02T08:32:28.685Z,42.08
2019-05-02T08:33:34.608Z,42.26
2019-05-02T08:34:37.273Z,42.30
2019-05-02T08:35:40.716Z,41.89
2019-05-02T08:36:44.295Z,41.83
2019-05-02T08:37:47.795Z,41.52
2019-05-02T08:38:53.549Z,41.51
2019-05-02T08:39:56.465Z,41.96
2019-05-02T08:40:59.901Z,42.38
2019-05-02T08:42:03.864Z,42.55
2019-05-02T08:43:09.353Z,42.71
2019-05-02T08:44:16.725Z,42.78
2019-05-02T08:45:17.924Z,42.27
2019-05-02T08:46:21.388Z,42.32
2019-05-02T08:47:28.511Z,42.42
2019-05-02T08:48:30.143Z,42.37
2019-05-02T08:49:33.569Z,42.37
2019-05-02T08:50:37.001Z,42.19
2019-05-02T08:51:41.611Z,42.42
2019-05-02T08:52:47.893Z,42.29
2019-05-02T08:53:52.054Z,42.35
2019-05-02T08:54:55.491Z,42.40
2019-05-02T08:55:59.004Z,42.42
2019-05-02T08:57:02.588Z,42.53
2019-05-02T08:58:12.804Z,42.45
2019-05-02T08:59:11.353Z,42.50
2019-05-02T09:00:15.938Z,42.23
2019-05-02T09:01:19.523Z,42.04
2019-05-02T09:02:26.021Z,42.33
2019-05-02T09:03:28.278Z,42.13
2019-05-02T09:04:31.806Z,42.03
2019-05-02T09:05:36.869Z,42.24
2019-05-02T09:06:40.654Z,41.90
2019-05-02T09:07:44.131Z,42.12
2019-05-02T09:08:51.486Z,41.79
2019-05-02T09:09:55.411Z,41.79
2019-05-02T09:10:58.000Z,41.99
2019-05-02T09:12:11.670Z,42.15
2019-05-02T09:13:06.569Z,41.67
2019-05-02T09:14:12.456Z,41.76
2019-05-02T09:15:15.721Z,41.73
2019-05-02T09:16:23.715Z,41.99
2019-05-02T09:17:35.507Z,42.01
2019-05-02T09:18:35.037Z,41.99
2019-05-02T09:19:35.063Z,42.22
2019-05-02T09:20:38.489Z,42.29
2019-05-02T09:21:42.947Z,41.95
2019-05-02T09:22:50.969Z,41.56
2019-05-02T09:23:51.874Z,41.22
2019-05-02T09:24:55.440Z,41.13
2019-05-02T09:25:58.958Z,40.92
2019-05-02T09:27:02.595Z,41.13
2019-05-02T09:28:06.230Z,41.04
2019-05-02T09:29:09.766Z,41.12
2019-05-02T09:30:17.205Z,41.39
2019-05-02T09:31:18.767Z,41.29
2019-05-02T09:32:26.262Z,41.28
2019-05-02T09:33:27.443Z,41.35
2019-05-02T09:34:31.856Z,41.13
2019-05-02T09:35:35.412Z,41.25
2019-05-02T09:36:38.851Z,41.33
2019-05-02T09:37:42.437Z,40.77
2019-05-02T09:38:48.739Z,40.82
2019-05-02T09:39:52.522Z,40.62
2019-05-02T09:40:56.349Z,40.19
2019-05-02T09:42:02.019Z,39.83
2019-05-02T09:43:05.080Z,40.06
2019-05-02T09:44:09.010Z,40.52
2019-05-02T09:45:16.141Z,40.96
2019-05-02T09:46:21.705Z,40.65
2019-05-02T09:47:27.341Z,40.66
2019-05-02T09:48:31.895Z,40.52
2019-05-02T09:49:35.398Z,40.43
2019-05-02T09:50:38.848Z,40.13
2019-05-02T09:51:45.400Z,39.83
2019-05-02T09:52:47.550Z,39.46
2019-05-02T09:53:52.355Z,39.47
2019-05-02T09:54:55.918Z,39.61
2019-05-02T09:55:59.384Z,39.53
2019-05-02T09:57:02.940Z,39.73
2019-05-02T09:58:10.374Z,40.00
2019-05-02T09:59:26.838Z,39.69
2019-05-02T10:00:22.183Z,39.35
2019-05-02T10:01:27.267Z,38.79
2019-05-02T10:02:32.442Z,38.86
2019-05-02T10:03:36.022Z,39.46
2019-05-02T10:04:42.113Z,39.84
2019-05-02T10:05:44.829Z,39.85
2019-05-02T10:06:48.253Z,39.82
2019-05-02T10:07:52.595Z,39.53
2019-05-02T10:08:56.254Z,39.28
2019-05-02T10:10:03.211Z,39.03
2019-05-02T10:11:05.070Z,39.04
2019-05-02T10:12:08.503Z,38.84
2019-05-02T10:13:12.324Z,38.95
2019-05-02T10:14:15.870Z,39.07
2019-05-02T10:15:19.714Z,39.19
2019-05-02T10:16:27.123Z,39.22
2019-05-02T10:17:28.928Z,38.81
2019-05-02T10:18:32.927Z,38.77
2019-05-02T10:19:41.151Z,38.75
2019-05-02T10:20:42.090Z,38.90
2019-05-02T10:21:47.120Z,38.64
2019-05-02T10:22:53.030Z,38.92
2019-05-02T10:23:59.296Z,38.67
2019-05-02T10:25:02.593Z,38.77
2019-05-02T10:26:06.242Z,38.80
2019-05-02T10:27:09.692Z,38.85
2019-05-02T10:28:13.300Z,38.60
2019-05-02T10:29:22.838Z,38.82
2019-05-02T10:30:24.061Z,38.94
2019-05-02T10:31:32.492Z,38.96
2019-05-02T10:32:32.823Z,38.86
2019-05-02T10:33:37.683Z,38.71
2019-05-02T10:34:42.234Z,38.75
2019-05-02T10:35:47.418Z,38.42
2019-05-02T10:36:53.851Z,38.24
2019-05-02T10:37:56.104Z,37.75
2019-05-02T10:39:01.646Z,37.10
2019-05-02T10:40:07.858Z,37.43
2019-05-02T10:41:12.127Z,36.97
2019-05-02T10:42:15.679Z,37.35
2019-05-02T10:43:19.201Z,37.50
2019-05-02T10:44:22.807Z,37.39
2019-05-02T10:45:27.918Z,37.11
2019-05-02T10:46:37.577Z,37.20
2019-05-02T10:47:38.241Z,36.95
2019-05-02T10:48:43.401Z,37.08
2019-05-02T10:49:54.534Z,37.04
2019-05-02T10:51:02.328Z,36.72
2019-05-02T10:52:06.001Z,36.52
2019-05-02T10:53:11.982Z,36.16
2019-05-02T10:54:14.754Z,36.22
2019-05-02T10:55:21.738Z,35.64
2019-05-02T10:56:23.811Z,35.36
2019-05-02T10:57:27.712Z,35.70
2019-05-02T10:58:35.565Z,35.44
2019-05-02T10:59:36.386Z,35.31
2019-05-02T11:00:44.873Z,35.38
2019-05-02T11:01:58.947Z,35.13
2019-05-02T11:03:22.633Z,35.00
2019-05-02T11:04:29.140Z,35.05
2019-05-02T11:05:32.850Z,35.17
2019-05-02T11:06:37.250Z,35.04
2019-05-02T11:07:42.007Z,34.95
2019-05-02T11:08:46.116Z,34.96
2019-05-02T11:09:49.644Z,35.16
2019-05-02T11:10:53.154Z,34.52
2019-05-02T11:11:56.759Z,34.86
2019-05-02T11:13:05.030Z,34.75
2019-05-02T11:14:11.986Z,34.60
2019-05-02T11:15:23.359Z,34.36
2019-05-02T11:16:32.190Z,34.70
2019-05-02T11:17:37.336Z,34.70
2019-05-02T11:19:02.518Z,34.68
2019-05-02T11:20:09.286Z,34.62
2019-05-02T11:21:12.825Z,34.76
2019-05-02T11:22:16.326Z,34.67
2019-05-02T11:23:22.002Z,34.85
2019-05-02T11:24:25.000Z,35.04
2019-05-02T11:25:28.508Z,35.17
2019-05-02T11:26:32.560Z,35.06
2019-05-02T11:27:36.059Z,34.98
2019-05-02T11:28:41.540Z,34.77
2019-05-02T11:29:44.672Z,34.50
2019-05-02T11:30:48.222Z,34.50
2019-05-02T11:31:52.192Z,34.10
2019-05-02T11:32:55.758Z,34.33
2019-05-02T11:33:59.220Z,34.18
2019-05-02T11:35:03.059Z,33.97
2019-05-02T11:36:06.669Z,33.46
2019-05-02T11:37:12.049Z,33.53
2019-05-02T11:38:51.939Z,33.84
2019-05-02T11:39:31.897Z,31.54
2019-05-02T11:40:25.828Z,30.94
2019-05-02T11:41:29.341Z,30.95
2019-05-02T11:42:32.815Z,30.53
2019-05-02T11:43:37.205Z,30.23
2019-05-02T11:44:41.867Z,29.89
2019-05-02T11:45:45.316Z,30.22
2019-05-02T11:46:48.828Z,29.36
2019-05-02T11:47:54.433Z,29.38
2019-05-02T11:48:58.682Z,28.97
2019-05-02T11:50:02.548Z,29.22
2019-05-02T11:51:07.307Z,29.80
2019-05-02T11:52:11.831Z,29.75
2019-05-02T11:53:24.719Z,29.78
2019-05-02T11:54:22.635Z,29.73
2019-05-02T11:55:28.980Z,30.37
2019-05-02T11:56:32.976Z,30.74
2019-05-02T11:57:36.337Z,31.02
2019-05-02T11:58:42.341Z,31.19
2019-05-02T11:59:44.930Z,29.92
2019-05-02T12:00:49.749Z,29.76
2019-05-02T12:02:00.136Z,27.70
2019-05-02T12:03:13.450Z,28.58
2019-05-02T12:04:17.119Z,28.74
2019-05-02T12:05:22.273Z,29.01
2019-05-02T12:06:25.670Z,29.74
2019-05-02T12:07:29.112Z,29.65
2019-05-02T12:08:32.551Z,29.35
2019-05-02T12:09:36.053Z,27.34
2019-05-02T12:10:39.648Z,26.93
2019-05-02T12:11:47.154Z,25.78
2019-05-02T12:12:48.260Z,24.97
2019-05-02T12:13:56.594Z,24.61
2019-05-02T12:14:56.932Z,24.17
2019-05-02T12:16:02.628Z,23.52
2019-05-02T12:17:06.074Z,24.03
2019-05-02T12:18:09.507Z,24.27
2019-05-02T12:19:14.962Z,24.44
2019-05-02T12:20:18.155Z,24.38
2019-05-02T12:21:22.964Z,24.44
2019-05-02T12:22:26.599Z,24.16
2019-05-02T12:23:31.956Z,23.84
2019-05-02T12:24:36.387Z,23.93
2019-05-02T12:25:42.284Z,23.93
2019-05-02T12:26:46.609Z,23.31
2019-05-02T12:27:50.171Z,23.28
2019-05-02T12:28:53.684Z,23.43
2019-05-02T12:29:58.049Z,23.39
2019-05-02T12:31:02.880Z,24.22
2019-05-02T12:32:06.402Z,24.26
2019-05-02T12:33:12.086Z,24.05
2019-05-02T12:34:15.128Z,23.55
2019-05-02T12:35:18.635Z,23.56
2019-05-02T12:36:22.757Z,22.76
2019-05-02T12:37:26.261Z,22.39
2019-05-02T12:38:29.686Z,22.89
2019-05-02T12:39:33.148Z,22.67
2019-05-02T12:40:36.577Z,23.06
2019-05-02T12:41:42.110Z,23.14
2019-05-02T12:42:45.327Z,23.35
2019-05-02T12:43:48.839Z,23.70
2019-05-02T12:44:53.281Z,23.33
2019-05-02T12:45:56.764Z,22.44
2019-05-02T12:47:00.219Z,22.11
2019-05-02T12:48:03.714Z,22.27
2019-05-02T12:49:07.215Z,22.21
2019-05-02T12:50:12.097Z,22.36
2019-05-02T12:51:15.698Z,22.61
2019-05-02T12:52:19.154Z,22.30
2019-05-02T12:53:22.584Z,22.06
2019-05-02T12:54:26.059Z,22.04
2019-05-02T12:55:29.498Z,21.69
2019-05-02T12:56:32.991Z,21.84
2019-05-02T12:57:36.454Z,21.54
2019-05-02T12:58:42.002Z,21.12
2019-05-02T12:59:45.099Z,21.61
2019-05-02T13:00:48.540Z,21.08
2019-05-02T13:01:52.088Z,20.33
2019-05-02T13:02:59.724Z,20.10
2019-05-02T13:04:08.072Z,20.46
2019-05-02T13:05:13.160Z,20.78
2019-05-02T13:06:16.724Z,21.14
2019-05-02T13:07:20.176Z,21.43
2019-05-02T13:08:25.318Z,21.51
2019-05-02T13:09:28.943Z,21.57
2019-05-02T13:10:48.630Z,21.73
2019-05-02T13:12:05.804Z,21.80
2019-05-02T13:13:09.457Z,21.84
2019-05-02T13:14:19.096Z,21.40
2019-05-02T13:15:18.464Z,21.70
2019-05-02T13:16:22.683Z,21.61
2019-05-02T13:17:29.199Z,21.42
2019-05-02T13:18:36.339Z,20.81
2019-05-02T13:19:40.899Z,20.24
2019-05-02T13:20:42.493Z,20.28
2019-05-02T13:21:50.237Z,20.31
2019-05-02T13:23:01.537Z,20.15
2019-05-02T13:24:12.241Z,20.21
2019-05-02T13:25:14.111Z,20.36
2019-05-02T13:26:21.641Z,20.35
2019-05-02T13:27:23.044Z,20.20
2019-05-02T13:28:26.540Z,20.62
2019-05-02T13:29:32.035Z,20.08
2019-05-02T13:30:45.005Z,20.01
2019-05-02T13:31:47.116Z,20.01
2019-05-02T13:32:53.763Z,19.81
2019-05-02T13:34:06.515Z,19.93
2019-05-02T13:35:22.276Z,20.08
2019-05-02T13:36:47.639Z,20.09
2019-05-02T13:37:51.872Z,18.64
2019-05-02T13:38:55.327Z,18.64
2019-05-02T13:40:08.983Z,19.07
2019-05-02T13:41:12.481Z,19.37
2019-05-02T13:42:16.561Z,20.02
2019-05-02T13:43:21.857Z,20.38
2019-05-02T13:44:29.022Z,20.15
2019-05-02T13:45:42.668Z,19.56
2019-05-02T13:46:46.245Z,19.79
2019-05-02T13:47:51.807Z,19.86
2019-05-02T13:48:54.907Z,20.26
2019-05-02T13:50:00.978Z,20.04
2019-05-02T13:51:04.250Z,19.90
2019-05-02T13:52:07.803Z,19.83
2019-05-02T13:53:12.155Z,20.28
2019-05-02T13:54:15.694Z,19.92
2019-05-02T13:55:20.919Z,19.83
2019-05-02T13:56:26.148Z,18.83
2019-05-02T13:57:29.650Z,19.00